Time,TemperatureF,DewpointF,PressureIn,WindDirection,WindDirectionDegrees,WindSpeedMPH,WindSpeedGustMPH,Humidity,HourlyPrecipIn,Conditions,Clouds,dailyrainin,SoftwareType,DateUTC
2013-07-14 00:02:00,78.0,-99.9,30.01,North,-999,-999.0,-999.0,-999,-99.99,,,-99.99,,2013-07-14 04:02:00,
2013-07-14 00:22:00,-999.0,-99.9,30.01,SE,136,14.0,18.0,-999,-99.99,,,-99.99,,2013-07-14 04:22:00,
2013-07-14 00:42:00,-999.0,-99.9,30.01,SE,141,15.0,19.0,-999,-99.99,,,-99.99,,2013-07-14 04:42:00,
2013-07-14 00:54:00,77.0,-99.9,30.01,North,-999,-999.0,-999.0,-999,-99.99,,,-99.99,,2013-07-14 04:54:00,
2013-07-14 01:23:00,-999.0,-99.9,30.01,SE,144,17.0,20.0,-999,-99.99,,,-99.99,,2013-07-14 05:23:00,
2013-07-14 01:32:00,-999.0,-99.9,30.01,SE,145,18.0,20.0,-999,-99.99,,,-99.99,,2013-07-14 05:32:00,
2013-07-14 01:43:00,-999.0,-99.9,30.00,SE,142,16.0,19.0,-999,-99.99,,,-99.99,,2013-07-14 05:43:00,
2013-07-14 01:53:00,-999.0,-99.9,30.00,SE,146,17.0,19.0,-999,-99.99,,,-99.99,,2013-07-14 05:53:00,
2013-07-14 02:12:00,-999.0,-99.9,30.00,SSE,148,15.0,19.0,-999,-99.99,,,-99.99,,2013-07-14 06:12:00,
2013-07-14 02:32:00,-999.0,-99.9,29.99,SSE,150,15.0,18.0,-999,-99.99,,,-99.99,,2013-07-14 06:32:00,
2013-07-14 02:42:00,77.0,-99.9,30.00,North,-999,-999.0,-999.0,-999,-99.99,,,-99.99,,2013-07-14 06:42:00,
2013-07-14 02:53:00,77.0,-99.9,29.99,North,-999,-999.0,-999.0,-999,-99.99,,,-99.99,,2013-07-14 06:53:00,
2013-07-14 03:02:00,76.0,-99.9,29.99,North,-999,-999.0,-999.0,-999,-99.99,,,-99.99,,2013-07-14 07:02:00,
2013-07-14 03:12:00,-999.0,-99.9,29.99,SE,145,15.0,17.0,-999,-99.99,,,-99.99,,2013-07-14 07:12:00,
2013-07-14 03:43:00,-999.0,-99.9,29.98,SSE,160,15.0,19.0,-999,-99.99,,,-99.99,,2013-07-14 07:43:00,
2013-07-14 03:53:00,76.0,-99.9,29.98,North,-999,-999.0,-999.0,-999,-99.99,,,-99.99,,2013-07-14 07:53:00,
2013-07-14 04:01:00,76.0,-99.9,29.98,North,-999,-999.0,-999.0,-999,-99.99,,,-99.99,,2013-07-14 08:01:00,
2013-07-14 04:11:00,-999.0,-99.9,29.98,SSE,153,14.0,16.0,-999,-99.99,,,-99.99,,2013-07-14 08:11:00,
2013-07-14 04:22:00,-999.0,-99.9,29.98,SSE,150,13.0,15.0,-999,-99.99,,,-99.99,,2013-07-14 08:22:00,
2013-07-14 04:32:00,76.0,-99.9,29.99,North,-999,-999.0,-999.0,-999,-99.99,,,-99.99,,2013-07-14 08:32:00,
2013-07-14 04:42:00,-999.0,-99.9,29.98,SE,146,10.0,11.0,-999,-99.99,,,-99.99,,2013-07-14 08:42:00,
2013-07-14 04:53:00,76.0,-99.9,29.98,North,-999,-999.0,-999.0,-999,-99.99,,,-99.99,,2013-07-14 08:53:00,
2013-07-14 05:01:00,-999.0,-99.9,29.98,SSE,152,9.0,11.0,-999,-99.99,,,-99.99,,2013-07-14 09:01:00,
2013-07-14 05:11:00,-999.0,-99.9,29.98,SSE,154,9.0,12.0,-999,-99.99,,,-99.99,,2013-07-14 09:11:00,
2013-07-14 05:22:00,-999.0,-99.9,29.99,SSE,149,9.0,10.0,-999,-99.99,,,-99.99,,2013-07-14 09:22:00,
2013-07-14 05:32:00,-999.0,-99.9,29.99,SE,139,9.0,11.0,-999,-99.99,,,-99.99,,2013-07-14 09:32:00,
2013-07-14 05:42:00,-999.0,-99.9,29.99,SE,135,7.0,10.0,-999,-99.99,,,-99.99,,2013-07-14 09:42:00,
2013-07-14 05:53:00,-999.0,-99.9,30.00,SE,133,7.0,8.0,-999,-99.99,,,-99.99,,2013-07-14 09:53:00,
2013-07-14 06:01:00,-999.0,-99.9,30.00,SE,127,10.0,11.0,-999,-99.99,,,-99.99,,2013-07-14 10:01:00,
2013-07-14 06:32:00,-999.0,-99.9,30.00,SE,130,10.0,15.0,-999,-99.99,,,-99.99,,2013-07-14 10:32:00,
2013-07-14 06:42:00,75.0,-99.9,30.00,North,-999,-999.0,-999.0,-999,-99.99,,,-99.99,,2013-07-14 10:42:00,
2013-07-14 06:53:00,75.0,-99.9,30.00,North,-999,-999.0,-999.0,-999,-99.99,,,-99.99,,2013-07-14 10:53:00,
2013-07-14 07:02:00,75.0,-99.9,30.01,North,-999,-999.0,-999.0,-999,-99.99,,,-99.99,,2013-07-14 11:02:00,
2013-07-14 07:11:00,-999.0,-99.9,30.01,SE,143,11.0,14.0,-999,-99.99,,,-99.99,,2013-07-14 11:11:00,
2013-07-14 07:32:00,-999.0,-99.9,30.02,SE,134,9.0,13.0,-999,-99.99,,,-99.99,,2013-07-14 11:32:00,
2013-07-14 07:43:00,75.0,-99.9,30.02,North,-999,-999.0,-999.0,-999,-99.99,,,-99.99,,2013-07-14 11:43:00,
2013-07-14 07:53:00,75.0,-99.9,30.02,North,-999,-999.0,-999.0,-999,-99.99,,,-99.99,,2013-07-14 11:53:00,
2013-07-14 08:02:00,-999.0,-99.9,30.02,SE,131,10.0,14.0,-999,-99.99,,,-99.99,,2013-07-14 12:02:00,
2013-07-14 08:22:00,-999.0,-99.9,30.02,SSE,152,12.0,14.0,-999,-99.99,,,-99.99,,2013-07-14 12:22:00,
2013-07-14 08:33:00,76.0,-99.9,30.02,North,-999,-999.0,-999.0,-999,-99.99,,,-99.99,,2013-07-14 12:33:00,
2013-07-14 08:43:00,-999.0,-99.9,30.02,SSE,157,13.0,16.0,-999,-99.99,,,-99.99,,2013-07-14 12:43:00,
2013-07-14 08:53:00,76.0,-99.9,30.04,North,-999,-999.0,-999.0,-999,-99.99,,,-99.99,,2013-07-14 12:53:00,
2013-07-14 09:01:00,77.0,-99.9,30.04,North,-999,-999.0,-999.0,-999,-99.99,,,-99.99,,2013-07-14 13:01:00,
2013-07-14 09:11:00,-999.0,-99.9,30.04,SSE,151,12.0,14.0,-999,-99.99,,,-99.99,,2013-07-14 13:11:00,
2013-07-14 09:22:00,-999.0,-99.9,30.04,SSE,152,11.0,14.0,-999,-99.99,,,-99.99,,2013-07-14 13:22:00,
2013-07-14 09:32:00,-999.0,-99.9,30.04,SSE,155,11.0,14.0,-999,-99.99,,,-99.99,,2013-07-14 13:32:00,
2013-07-14 09:43:00,-999.0,-99.9,30.05,SSE,153,10.0,11.0,-999,-99.99,,,-99.99,,2013-07-14 13:43:00,
2013-07-14 09:53:00,77.0,-99.9,30.05,North,-999,-999.0,-999.0,-999,-99.99,,,-99.99,,2013-07-14 13:53:00,
2013-07-14 10:02:00,78.0,-99.9,30.06,North,-999,-999.0,-999.0,-999,-99.99,,,-99.99,,2013-07-14 14:02:00,
2013-07-14 10:11:00,-999.0,-99.9,30.06,SE,139,7.0,9.0,-999,-99.99,,,-99.99,,2013-07-14 14:11:00,
2013-07-14 10:33:00,-999.0,-99.9,30.07,SE,133,6.0,8.0,-999,-99.99,,,-99.99,,2013-07-14 14:33:00,
2013-07-14 10:43:00,-999.0,-99.9,30.06,SE,126,4.0,7.0,-999,-99.99,,,-99.99,,2013-07-14 14:43:00,
2013-07-14 10:53:00,-999.0,-99.9,30.06,South,173,5.0,6.0,-999,-99.99,,,-99.99,,2013-07-14 14:53:00,
2013-07-14 11:01:00,-999.0,-99.9,30.06,South,170,4.0,5.0,-999,-99.99,,,-99.99,,2013-07-14 15:01:00,
2013-07-14 11:12:00,-999.0,-99.9,30.06,SSE,164,6.0,7.0,-999,-99.99,,,-99.99,,2013-07-14 15:12:00,
2013-07-14 11:22:00,-999.0,-99.9,30.07,SSE,150,6.0,7.0,-999,-99.99,,,-99.99,,2013-07-14 15:22:00,
2013-07-14 11:32:00,79.0,-99.9,30.07,North,-999,-999.0,-999.0,-999,-99.99,,,-99.99,,2013-07-14 15:32:00,
2013-07-14 11:42:00,-999.0,-99.9,30.07,SE,129,6.0,7.0,-999,-99.99,,,-99.99,,2013-07-14 15:42:00,
2013-07-14 11:53:00,-999.0,-99.9,30.08,SE,136,5.0,7.0,-999,-99.99,,,-99.99,,2013-07-14 15:53:00,
2013-07-14 12:32:00,81.0,-99.9,30.08,North,-999,-999.0,-999.0,-999,-99.99,,,-99.99,,2013-07-14 16:32:00,
2013-07-14 12:43:00,-999.0,-99.9,30.08,East,88,4.0,6.0,-999,-99.99,,,-99.99,,2013-07-14 16:43:00,
2013-07-14 12:54:00,81.0,-99.9,30.08,North,-999,-999.0,-999.0,-999,-99.99,,,-99.99,,2013-07-14 16:54:00,
2013-07-14 13:03:00,-999.0,-99.9,30.08,SE,132,4.0,6.0,-999,-99.99,,,-99.99,,2013-07-14 17:03:00,
2013-07-14 13:12:00,-999.0,-99.9,30.07,East,92,3.0,4.0,-999,-99.99,,,-99.99,,2013-07-14 17:12:00,
2013-07-14 13:23:00,-999.0,-99.9,30.08,SSE,147,4.0,5.0,-999,-99.99,,,-99.99,,2013-07-14 17:23:00,
2013-07-14 13:43:00,-999.0,-99.9,30.08,SE,139,4.0,5.0,-999,-99.99,,,-99.99,,2013-07-14 17:43:00,
2013-07-14 13:53:00,-999.0,-99.9,30.07,SSE,155,4.0,6.0,-999,-99.99,,,-99.99,,2013-07-14 17:53:00,
2013-07-14 14:01:00,82.0,-99.9,30.06,North,-999,-999.0,-999.0,-999,-99.99,,,-99.99,,2013-07-14 18:01:00,
2013-07-14 14:22:00,-999.0,-99.9,30.07,SSE,147,9.0,10.0,-999,-99.99,,,-99.99,,2013-07-14 18:22:00,
2013-07-14 14:32:00,81.0,-99.9,30.07,North,-999,-999.0,-999.0,-999,-99.99,,,-99.99,,2013-07-14 18:32:00,
2013-07-14 14:42:00,81.0,-99.9,30.06,North,-999,-999.0,-999.0,-999,-99.99,,,-99.99,,2013-07-14 18:42:00,
2013-07-14 14:52:00,-999.0,-99.9,30.06,SSE,165,7.0,10.0,-999,-99.99,,,-99.99,,2013-07-14 18:52:00,
2013-07-14 15:02:00,-999.0,-99.9,30.06,SSE,164,4.0,8.0,-999,-99.99,,,-99.99,,2013-07-14 19:02:00,
2013-07-14 15:32:00,-999.0,-99.9,30.06,SE,133,5.0,7.0,-999,-99.99,,,-99.99,,2013-07-14 19:32:00,
2013-07-14 15:43:00,84.0,-99.9,30.06,North,-999,-999.0,-999.0,-999,-99.99,,,-99.99,,2013-07-14 19:43:00,
2013-07-14 15:53:00,83.0,-99.9,30.06,North,-999,-999.0,-999.0,-999,-99.99,,,-99.99,,2013-07-14 19:53:00,
2013-07-14 16:02:00,-999.0,-99.9,30.06,ESE,115,4.0,6.0,-999,-99.99,,,-99.99,,2013-07-14 20:02:00,
2013-07-14 16:11:00,-999.0,-99.9,30.06,East,93,4.0,6.0,-999,-99.99,,,-99.99,,2013-07-14 20:11:00,
2013-07-14 16:22:00,-999.0,-99.9,30.06,East,93,4.0,6.0,-999,-99.99,,,-99.99,,2013-07-14 20:22:00,
2013-07-14 16:32:00,-999.0,-99.9,30.05,ESE,116,4.0,6.0,-999,-99.99,,,-99.99,,2013-07-14 20:32:00,
2013-07-14 16:43:00,-999.0,-99.9,30.05,East,99,4.0,7.0,-999,-99.99,,,-99.99,,2013-07-14 20:43:00,
2013-07-14 16:53:00,84.0,-99.9,30.06,North,-999,-999.0,-999.0,-999,-99.99,,,-99.99,,2013-07-14 20:53:00,
2013-07-14 17:02:00,82.0,-99.9,30.05,North,-999,-999.0,-999.0,-999,-99.99,,,-99.99,,2013-07-14 21:02:00,
2013-07-14 17:11:00,-999.0,-99.9,30.05,SE,140,11.0,13.0,-999,-99.99,,,-99.99,,2013-07-14 21:11:00,
2013-07-14 17:22:00,-999.0,-99.9,30.05,SE,134,8.0,11.0,-999,-99.99,,,-99.99,,2013-07-14 21:22:00,
2013-07-14 17:32:00,-999.0,-99.9,30.05,SSE,147,7.0,9.0,-999,-99.99,,,-99.99,,2013-07-14 21:32:00,
2013-07-14 17:43:00,-999.0,-99.9,30.05,ESE,121,6.0,9.0,-999,-99.99,,,-99.99,,2013-07-14 21:43:00,
2013-07-14 17:53:00,82.0,-99.9,30.06,North,-999,-999.0,-999.0,-999,-99.99,,,-99.99,,2013-07-14 21:53:00,
2013-07-14 18:02:00,-999.0,-99.9,30.06,ESE,120,5.0,8.0,-999,-99.99,,,-99.99,,2013-07-14 22:02:00,
2013-07-14 18:11:00,-999.0,-99.9,30.06,ESE,112,5.0,8.0,-999,-99.99,,,-99.99,,2013-07-14 22:11:00,
2013-07-14 18:32:00,80.0,-99.9,30.06,North,-999,-999.0,-999.0,-999,-99.99,,,-99.99,,2013-07-14 22:32:00,
2013-07-14 18:42:00,80.0,-99.9,30.06,North,-999,-999.0,-999.0,-999,-99.99,,,-99.99,,2013-07-14 22:42:00,
2013-07-14 18:54:00,80.0,-99.9,30.05,North,-999,-999.0,-999.0,-999,-99.99,,,-99.99,,2013-07-14 22:54:00,
2013-07-14 19:02:00,-999.0,-99.9,30.06,SE,138,14.0,17.0,-999,-99.99,,,-99.99,,2013-07-14 23:02:00,
2013-07-14 19:22:00,-999.0,-99.9,30.06,SE,146,12.0,16.0,-999,-99.99,,,-99.99,,2013-07-14 23:22:00,
2013-07-14 19:32:00,-999.0,-99.9,30.07,SSE,148,10.0,12.0,-999,-99.99,,,-99.99,,2013-07-14 23:32:00,
2013-07-14 19:42:00,78.0,-99.9,30.07,North,-999,-999.0,-999.0,-999,-99.99,,,-99.99,,2013-07-14 23:42:00,
2013-07-14 19:53:00,78.0,-99.9,30.06,North,-999,-999.0,-999.0,-999,-99.99,,,-99.99,,2013-07-14 23:53:00,
2013-07-14 20:02:00,79.0,-99.9,30.07,North,-999,-999.0,-999.0,-999,-99.99,,,-99.99,,2013-07-15 00:02:00,
2013-07-14 20:11:00,-999.0,-99.9,30.07,SE,124,8.0,12.0,-999,-99.99,,,-99.99,,2013-07-15 00:11:00,
2013-07-14 20:22:00,-999.0,-99.9,30.08,SE,127,7.0,10.0,-999,-99.99,,,-99.99,,2013-07-15 00:22:00,
2013-07-14 20:43:00,79.0,-99.9,30.08,North,-999,-999.0,-999.0,-999,-99.99,,,-99.99,,2013-07-15 00:43:00,
2013-07-14 20:53:00,79.0,-99.9,30.08,North,-999,-999.0,-999.0,-999,-99.99,,,-99.99,,2013-07-15 00:53:00,
2013-07-14 21:02:00,-999.0,-99.9,30.08,SE,133,8.0,10.0,-999,-99.99,,,-99.99,,2013-07-15 01:02:00,
2013-07-14 21:22:00,-999.0,-99.9,30.08,SE,134,7.0,9.0,-999,-99.99,,,-99.99,,2013-07-15 01:22:00,
2013-07-14 21:32:00,-999.0,-99.9,30.09,SE,129,6.0,8.0,-999,-99.99,,,-99.99,,2013-07-15 01:32:00,
2013-07-14 21:43:00,-999.0,-99.9,30.09,ESE,116,3.0,6.0,-999,-99.99,,,-99.99,,2013-07-15 01:43:00,
2013-07-14 21:53:00,-999.0,-99.9,30.09,ESE,119,6.0,9.0,-999,-99.99,,,-99.99,,2013-07-15 01:53:00,
2013-07-14 22:11:00,-999.0,-99.9,30.10,SE,125,8.0,12.0,-999,-99.99,,,-99.99,,2013-07-15 02:11:00,
2013-07-14 22:32:00,-999.0,-99.9,30.11,SE,131,11.0,15.0,-999,-99.99,,,-99.99,,2013-07-15 02:32:00,
2013-07-14 22:42:00,76.0,-99.9,30.11,North,-999,-999.0,-999.0,-999,-99.99,,,-99.99,,2013-07-15 02:42:00,
2013-07-14 22:53:00,76.0,-99.9,30.10,North,-999,-999.0,-999.0,-999,-99.99,,,-99.99,,2013-07-15 02:53:00,
2013-07-14 23:02:00,76.0,-99.9,30.11,North,-999,-999.0,-999.0,-999,-99.99,,,-99.99,,2013-07-15 03:02:00,
2013-07-14 23:11:00,-999.0,-99.9,30.11,SE,124,11.0,15.0,-999,-99.99,,,-99.99,,2013-07-15 03:11:00,
2013-07-14 23:22:00,-999.0,-99.9,30.11,SE,134,11.0,14.0,-999,-99.99,,,-99.99,,2013-07-15 03:22:00,
2013-07-14 23:43:00,-999.0,-99.9,30.10,SSE,147,11.0,14.0,-999,-99.99,,,-99.99,,2013-07-15 03:43:00,
2013-07-14 23:53:00,-999.0,-99.9,30.10,SE,134,12.0,14.0,-999,-99.99,,,-99.99,,2013-07-15 03:53:00,